Teeds Grove, IA

8:57 AM CDT on October 17, 2019 (GMT -0500)
The Island City | | Change Station
Active Advisory: Flood Warning

Elev 604 ft 42.07 °N, 90.17 °W | Updated 4 seconds ago

Clear
Clear
50.2 °F
Feels Like 50.2 °F
N
1
Wind Variable Wind from West
Gusts 3.0 mph

Today
High -- | Low -- °F
--% Chance of Precip.
Yesterday
High -- | Low -- °F
Precip. -- in
Pressure 30.07 in
Visibility 10.0 miles
Clouds Clear
Dew Point 42 °F
Humidity 74%
Rainfall 0.00 in
Snow Depth Not available.
7:15 AM 6:16 PM
Waning Gibbous, 87% visible
METAR KSFY 171335Z AUTO 00000KT 10SM CLR 04/03 A3007 RMK AO2
Pressure 30.07 in
Visibility 10.0 miles
Clouds Clear
Dew Point 42 °F
Humidity 74%
Rainfall 0.00 in
Snow Depth Not available.
7:15 AM 6:16 PM
Waning Gibbous, 87% visible
METAR KSFY 171335Z AUTO 00000KT 10SM CLR 04/03 A3007 RMK AO2

Get Your Daily Forecast Email!

Thanks for signing up!

Be on the lookout for a verification email in your inbox.

You'll start receiving severe weather alerts in your inbox..

×

10-Day Weather Forecast

Almanac

Astronomy

Oct. 17, 2019 Rise Set
Actual Time
Civil Twilight
Nautical Twilight
Astronomical Twilight
Moon
Length of Visible Light
Length of Day
Tomorrow will be .
, % of the Moon is Illuminated

Today's Extremes

State Highs State Lows

Community

WunderPhotos

Category 6

Welcome to Category 6. This is the collective home for Weather Underground's featured writeups by Dr. Jeff Masters (right), Bob Henson (left), Chris Burt, and other regular contributors.

Nearby

Air Quality

  Air Quality AQ Index Pollutant
Not available.

Snow Depth

Station Depth Elevation

Earthquake Activity

City Distance Mag. Time & Date
Minimum magnitude displayed is 2.5.

Coastal Water Temperatures

Place Temperature

Stations

Nearby Weather Stations

Station Location Temp. Windchill Dew Point Humidity Wind Precip. Elev Updated Type
                   

Watches & Warnings

Flood Warning
Issued: 8:12 PM CDT Oct. 16, 2019 – National Weather Service

... Flood Warning remains in effect until Sunday morning...

The Flood Warning continues for
the Mississippi River at Camanche.
* Until Sunday morning.
* At 7:30 PM Wednesday the stage was 17.9 feet and slowly
falling.
* Flood stage is 17.0 feet.
* Minor flooding is occurring.
* Forecast, fall below flood stage Sunday morning.
* Impact, at 17.0 feet, water affects low-lying residences at
Albany.


Lat... Lon 4176 9033 4189 9020 4188 9012 4180 9015
      4173 9027





812 PM CDT Wed Oct 16 2019

... Flood Warning now in effect until Friday evening...

The Flood Warning continues for
the Mississippi River at Fulton ld13.
* Until Friday evening.
* At 6:00 PM Wednesday the stage was 16.3 feet and slowly falling.
* Flood stage is 16.0 feet.
* Minor flooding is occurring.
* Forecast, fall below flood stage Friday evening.
* Impact, at 16.0 feet, water affects a few houses at Thomson.


Lat... Lon 4211 9012 4193 9008 4188 9012 4189 9020
      4208 9019